Time;durP1;ratioP1;P1;durP2;ratioP2;P2;SDS_P1;SDS_P2;PMS_P1;PMS_P2;Temp;Humidity;BMP_temperature;BMP_pressure;BME280_temperature;BME280_humidity;BME280_pressure;Samples;Min_cycle;Max_cycle;Signal;HPM_P1;HPM_P2
2022/06/22 00:02:22;;;;;;;7.77;2.90;;;19.80;60.90;;;;;;5021860;28;20550;-80
2022/06/22 00:04:55;;;;;;;4.40;1.90;;;19.80;60.90;;;;;;5019651;28;21067;-80
2022/06/22 00:07:26;;;;;;;4.30;2.07;;;19.80;61.00;;;;;;5019521;28;20488;-80
2022/06/22 00:09:57;;;;;;;5.60;2.00;;;19.80;61.00;;;;;;5039585;28;20554;-81
2022/06/22 00:12:28;;;;;;;7.37;2.50;;;19.80;61.00;;;;;;5024131;28;20460;-81
2022/06/22 00:15:00;;;;;;;5.30;2.90;;;19.80;61.10;;;;;;5019717;28;20450;-81
2022/06/22 00:17:33;;;;;;;5.20;2.50;;;19.80;61.10;;;;;;5041804;28;20655;-81
2022/06/22 00:20:08;;;;;;;4.90;2.50;;;19.70;61.10;;;;;;5029601;28;20558;-81
2022/06/22 00:22:47;;;;;;;7.13;2.50;;;19.70;61.10;;;;;;5037746;28;20492;-81
2022/06/22 00:25:22;;;;;;;5.80;2.50;;;19.60;61.20;;;;;;5026621;28;20477;-81
2022/06/22 00:27:50;;;;;;;6.13;2.60;;;19.60;61.30;;;;;;5030725;28;20498;-82
2022/06/22 00:30:30;;;;;;;4.97;2.30;;;19.50;61.30;;;;;;5027745;28;20446;-81
2022/06/22 00:33:14;;;;;;;5.03;2.70;;;19.50;61.50;;;;;;5023408;28;20457;-81
2022/06/22 00:35:53;;;;;;;6.63;2.70;;;19.50;61.50;;;;;;5020443;28;20471;-81
2022/06/22 00:38:26;;;;;;;4.33;2.20;;;19.40;61.50;;;;;;5026074;28;20482;-81
2022/06/22 00:40:58;;;;;;;4.13;2.33;;;19.40;61.50;;;;;;5037875;28;21058;-81
2022/06/22 00:43:30;;;;;;;5.40;2.60;;;19.40;61.60;;;;;;5023575;28;20458;-81
2022/06/22 00:46:01;;;;;;;5.57;2.93;;;19.30;61.70;;;;;;5027426;28;21024;-81
2022/06/22 00:48:32;;;;;;;6.57;2.83;;;19.30;61.70;;;;;;5022798;28;20450;-81
2022/06/22 00:51:04;;;;;;;5.90;2.80;;;19.30;61.70;;;;;;5018629;28;20481;-81
2022/06/22 00:53:35;;;;;;;6.73;2.53;;;19.20;61.90;;;;;;5024544;28;20488;-81
2022/06/22 00:56:23;;;;;;;5.60;3.00;;;19.20;62.00;;;;;;5023911;28;20462;-81
2022/06/22 00:58:59;;;;;;;6.33;2.50;;;19.10;62.20;;;;;;5022119;28;20448;-80
2022/06/22 01:01:37;;;;;;;5.00;3.00;;;19.10;62.20;;;;;;5035984;28;20985;-80
2022/06/22 01:04:11;;;;;;;5.70;3.17;;;19.10;62.30;;;;;;5024514;28;20504;-81
2022/06/22 01:06:44;;;;;;;6.07;2.47;;;19.10;62.30;;;;;;5023194;28;21010;-80
2022/06/22 01:09:20;;;;;;;6.10;2.93;;;19.10;62.40;;;;;;5028179;28;20456;-82
2022/06/22 01:12:18;;;;;;;4.90;2.30;;;19.10;62.40;;;;;;5045004;28;20464;-81
2022/06/22 01:14:55;;;;;;;5.17;2.30;;;19.10;62.50;;;;;;5028304;28;20465;-81
2022/06/22 01:17:31;;;;;;;5.63;2.43;;;19.20;62.50;;;;;;5018928;28;20487;-81
2022/06/22 01:20:05;;;;;;;5.47;2.80;;;19.20;62.40;;;;;;5026200;28;20469;-81
2022/06/22 01:22:46;;;;;;;5.50;2.57;;;19.20;62.30;;;;;;5036834;28;20478;-80
2022/06/22 01:25:36;;;;;;;6.70;2.63;;;19.10;62.40;;;;;;5023305;28;20471;-80
2022/06/22 01:28:06;;;;;;;5.33;2.70;;;19.10;62.40;;;;;;5024151;28;20501;-79
2022/06/22 01:30:38;;;;;;;5.50;3.13;;;19.10;62.40;;;;;;5022080;28;20564;-80
2022/06/22 01:33:08;;;;;;;5.00;2.63;;;19.00;62.40;;;;;;5020491;28;20461;-80
2022/06/22 01:35:39;;;;;;;5.03;2.67;;;18.90;62.50;;;;;;5043617;28;20458;-80
2022/06/22 01:38:15;;;;;;;5.97;2.90;;;18.90;62.50;;;;;;5023663;28;20477;-79
2022/06/22 01:40:50;;;;;;;6.90;3.20;;;18.80;62.70;;;;;;5026472;28;20458;-81
2022/06/22 01:43:29;;;;;;;5.23;2.83;;;18.80;62.80;;;;;;5035268;28;20471;-81
2022/06/22 01:46:05;;;;;;;4.60;2.50;;;18.80;62.80;;;;;;5026895;28;20488;-80
2022/06/22 01:48:38;;;;;;;5.80;2.77;;;18.80;62.90;;;;;;5015975;28;20465;-81
2022/06/22 01:51:13;;;;;;;6.20;3.20;;;18.80;62.90;;;;;;5036394;28;20466;-80
2022/06/22 01:53:48;;;;;;;5.10;3.03;;;18.70;63.00;;;;;;5021339;28;20486;-80
2022/06/22 01:56:24;;;;;;;6.87;3.00;;;18.70;63.10;;;;;;5023438;28;20456;-80
2022/06/22 01:59:02;;;;;;;6.57;2.90;;;18.70;63.10;;;;;;5038140;28;20481;-80
2022/06/22 02:01:36;;;;;;;6.57;3.17;;;18.70;63.00;;;;;;5021897;28;20481;-79
2022/06/22 02:04:19;;;;;;;5.37;3.30;;;18.60;63.10;;;;;;5018841;28;20510;-80
2022/06/22 02:09:57;;;;;;;5.70;2.90;;;18.60;63.20;;;;;;5018414;28;20553;-79
2022/06/22 02:12:34;;;;;;;5.03;2.80;;;18.60;63.30;;;;;;5023904;28;20472;-80
2022/06/22 02:15:11;;;;;;;5.03;2.97;;;18.60;63.30;;;;;;5023281;28;20445;-80
2022/06/22 02:17:42;;;;;;;5.10;3.10;;;18.60;63.20;;;;;;5026599;28;20494;-80
2022/06/22 02:20:28;;;;;;;8.03;3.03;;;18.60;63.30;;;;;;5037485;28;21136;-80
2022/06/22 02:23:02;;;;;;;4.40;2.40;;;18.60;63.40;;;;;;5021532;28;20471;-80
2022/06/22 02:25:34;;;;;;;4.23;2.13;;;18.60;63.30;;;;;;5020909;28;20482;-80
2022/06/22 02:28:02;;;;;;;6.03;2.80;;;18.60;63.30;;;;;;5026529;28;20493;-80
2022/06/22 02:30:33;;;;;;;7.63;2.80;;;18.60;63.30;;;;;;5024976;28;20567;-80
2022/06/22 02:33:01;;;;;;;5.27;2.87;;;18.50;63.50;;;;;;5025732;28;20465;-80
2022/06/22 02:35:29;;;;;;;4.83;2.50;;;18.50;63.50;;;;;;5024049;28;20801;-80
2022/06/22 02:38:05;;;;;;;4.53;2.30;;;18.50;63.50;;;;;;5019881;28;20490;-80
2022/06/22 02:44:29;;;;;;;4.90;2.60;;;18.40;63.50;;;;;;5018824;28;20913;-80
2022/06/22 02:46:15;;;;;;;4.53;2.90;;;18.30;63.60;;;;;;5026591;28;20480;-80
2022/06/22 02:48:47;;;;;;;5.20;3.00;;;18.30;63.70;;;;;;5026535;28;20460;-80
2022/06/22 02:51:21;;;;;;;5.07;2.90;;;18.20;63.80;;;;;;5017496;28;20806;-80
2022/06/22 02:53:51;;;;;;;5.00;2.70;;;18.20;63.90;;;;;;5022616;28;20979;-80
2022/06/22 02:56:24;;;;;;;5.10;2.77;;;18.20;63.90;;;;;;5022109;28;21122;-80
2022/06/22 02:58:52;;;;;;;5.40;2.70;;;18.20;64.00;;;;;;5024290;28;20467;-80
2022/06/22 03:01:27;;;;;;;5.50;2.80;;;18.20;64.10;;;;;;5021131;28;20497;-79
2022/06/22 03:03:58;;;;;;;6.90;3.10;;;18.20;64.10;;;;;;5021452;28;20482;-79
2022/06/22 03:06:30;;;;;;;10.17;3.10;;;18.20;64.10;;;;;;5020824;28;20499;-79
2022/06/22 03:09:00;;;;;;;4.80;2.90;;;18.20;64.10;;;;;;5023136;28;20462;-79
2022/06/22 03:11:28;;;;;;;6.27;2.90;;;18.20;64.10;;;;;;5018963;28;20461;-79
2022/06/22 03:14:03;;;;;;;6.30;2.67;;;18.20;64.20;;;;;;5018121;28;20459;-79
2022/06/22 03:16:36;;;;;;;7.63;2.90;;;18.10;64.20;;;;;;5021021;28;20486;-79
2022/06/22 03:19:11;;;;;;;5.70;3.03;;;18.10;64.30;;;;;;5020794;28;20955;-80
2022/06/22 03:21:39;;;;;;;7.20;3.20;;;18.00;64.30;;;;;;5023424;28;20488;-80
2022/06/22 03:24:13;;;;;;;5.60;3.27;;;18.00;64.40;;;;;;5017150;28;20462;-80
2022/06/22 03:26:45;;;;;;;5.40;2.90;;;18.00;64.50;;;;;;5020804;28;20494;-80
2022/06/22 03:29:20;;;;;;;5.53;3.37;;;18.00;64.50;;;;;;5040392;28;20483;-80
2022/06/22 03:31:54;;;;;;;5.60;3.00;;;18.00;64.70;;;;;;5037728;28;20486;-80
2022/06/22 03:34:26;;;;;;;5.50;2.50;;;17.90;64.70;;;;;;5071699;28;20459;-80
2022/06/22 03:36:59;;;;;;;5.23;2.70;;;17.90;64.80;;;;;;5049748;28;20473;-80
2022/06/22 03:39:31;;;;;;;5.10;3.07;;;18.00;64.90;;;;;;5045528;28;20509;-79
2022/06/22 03:42:03;;;;;;;8.13;3.53;;;18.00;64.90;;;;;;5059523;28;21159;-79
2022/06/22 03:44:35;;;;;;;5.33;3.17;;;18.00;65.00;;;;;;5043660;28;20454;-79
2022/06/22 03:47:09;;;;;;;4.33;2.30;;;18.00;65.10;;;;;;5045480;28;20485;-79
2022/06/22 03:49:43;;;;;;;8.00;3.10;;;18.00;65.10;;;;;;5037441;28;21136;-79
2022/06/22 03:52:16;;;;;;;6.33;3.13;;;18.00;65.10;;;;;;5019649;28;20457;-80
2022/06/22 03:54:49;;;;;;;6.17;3.00;;;18.10;65.20;;;;;;5034033;28;20461;-80
2022/06/22 03:57:22;;;;;;;5.03;2.70;;;18.00;65.20;;;;;;5022821;28;21137;-79
2022/06/22 03:59:50;;;;;;;5.30;3.17;;;18.00;65.30;;;;;;5037454;28;20450;-79
2022/06/22 04:02:20;;;;;;;7.57;2.70;;;18.10;65.40;;;;;;5021576;28;20488;-79
2022/06/22 04:04:51;;;;;;;8.27;3.07;;;18.10;65.50;;;;;;5025352;28;20953;-80
2022/06/22 04:07:19;;;;;;;5.53;2.80;;;18.10;65.50;;;;;;5035541;28;20517;-80
2022/06/22 04:09:52;;;;;;;5.67;2.93;;;18.10;65.50;;;;;;5023678;28;20471;-80
2022/06/22 04:12:26;;;;;;;5.50;3.30;;;18.10;65.60;;;;;;5019781;28;21045;-80
2022/06/22 04:15:00;;;;;;;5.80;3.40;;;18.10;65.70;;;;;;5038542;28;20834;-80
2022/06/22 04:17:34;;;;;;;5.17;3.10;;;18.20;65.80;;;;;;5024347;28;21278;-79
2022/06/22 04:20:11;;;;;;;6.63;3.07;;;18.20;65.90;;;;;;5023390;28;20542;-80
2022/06/22 04:22:43;;;;;;;4.50;2.77;;;18.20;65.90;;;;;;5026873;28;20470;-80
2022/06/22 04:25:17;;;;;;;5.37;3.27;;;18.20;66.00;;;;;;5020463;28;20471;-80
2022/06/22 04:27:49;;;;;;;5.60;2.80;;;18.20;66.00;;;;;;5019270;28;20488;-79
2022/06/22 04:30:20;;;;;;;7.50;2.83;;;18.30;66.10;;;;;;5034887;28;21948;-80
2022/06/22 04:32:57;;;;;;;5.47;3.00;;;18.30;66.20;;;;;;5023261;28;21241;-79
2022/06/22 04:35:34;;;;;;;7.00;3.60;;;18.40;66.20;;;;;;5025356;28;20453;-80
2022/06/22 04:38:10;;;;;;;6.20;2.97;;;18.40;66.20;;;;;;5026443;28;20489;-80
2022/06/22 04:40:48;;;;;;;5.57;3.07;;;18.40;66.20;;;;;;5021356;28;20463;-80
2022/06/22 04:43:16;;;;;;;6.60;3.40;;;18.50;66.20;;;;;;5020311;28;20465;-79
2022/06/22 04:45:47;;;;;;;5.50;3.40;;;18.50;66.20;;;;;;5028513;28;20480;-80
2022/06/22 04:48:21;;;;;;;4.97;2.67;;;18.50;66.30;;;;;;5054681;28;20826;-79
2022/06/22 04:50:52;;;;;;;6.33;2.80;;;18.60;66.50;;;;;;5052306;28;20952;-79
2022/06/22 04:53:27;;;;;;;7.20;3.00;;;18.80;66.60;;;;;;5057488;28;20501;-79
2022/06/22 04:56:00;;;;;;;5.57;2.73;;;19.00;66.50;;;;;;5046694;28;20471;-79
2022/06/22 04:58:36;;;;;;;5.73;3.17;;;19.20;66.30;;;;;;5051103;28;20483;-79
2022/06/22 05:01:05;;;;;;;8.07;3.33;;;19.40;66.20;;;;;;5047841;28;20464;-79
2022/06/22 05:03:36;;;;;;;7.77;4.10;;;19.50;66.00;;;;;;5031305;28;20474;-79
2022/06/22 05:06:09;;;;;;;9.60;3.23;;;19.60;66.00;;;;;;5026555;28;20462;-79
2022/06/22 05:08:42;;;;;;;7.53;3.13;;;19.70;66.00;;;;;;5046534;28;20546;-79
2022/06/22 05:11:16;;;;;;;5.03;3.07;;;19.80;65.90;;;;;;5019497;28;20542;-79
2022/06/22 05:13:47;;;;;;;5.83;2.50;;;19.90;65.90;;;;;;5021832;28;20470;-79
2022/06/22 05:16:20;;;;;;;7.30;3.30;;;20.00;65.80;;;;;;5037834;28;20456;-81
2022/06/22 05:18:50;;;;;;;6.83;3.43;;;20.10;65.70;;;;;;5043210;28;20462;-80
2022/06/22 05:21:28;;;;;;;5.83;2.97;;;20.10;65.60;;;;;;5025142;28;20606;-81
2022/06/22 05:24:01;;;;;;;5.10;3.10;;;20.20;65.40;;;;;;5043062;28;21227;-81
2022/06/22 05:26:31;;;;;;;6.07;3.53;;;20.30;65.20;;;;;;5025548;28;20498;-81
2022/06/22 05:29:05;;;;;;;6.20;3.60;;;20.30;65.10;;;;;;5019959;28;20951;-81
2022/06/22 05:31:37;;;;;;;5.97;3.10;;;20.30;65.10;;;;;;5039037;28;20939;-81
2022/06/22 05:34:11;;;;;;;5.60;2.90;;;20.30;65.30;;;;;;5022881;28;20965;-81
2022/06/22 05:36:44;;;;;;;10.87;3.00;;;20.40;65.70;;;;;;5024952;28;20578;-81
2022/06/22 05:39:13;;;;;;;5.20;3.03;;;20.50;66.10;;;;;;5037471;28;20486;-81
2022/06/22 05:41:46;;;;;;;6.20;2.93;;;20.70;66.00;;;;;;5021346;28;20461;-81
2022/06/22 05:44:18;;;;;;;5.53;2.80;;;20.80;65.50;;;;;;5024346;28;20474;-81
2022/06/22 05:46:51;;;;;;;4.97;2.30;;;21.00;65.70;;;;;;5026207;28;20600;-81
2022/06/22 05:49:23;;;;;;;5.50;2.50;;;21.60;65.50;;;;;;5040221;28;20520;-81
2022/06/22 05:51:58;;;;;;;4.63;2.27;;;22.30;64.50;;;;;;5018156;28;20821;-81
2022/06/22 05:54:33;;;;;;;8.90;2.43;;;22.90;63.30;;;;;;5022031;28;20469;-81
2022/06/22 05:57:11;;;;;;;6.10;2.43;;;23.20;61.50;;;;;;5014148;28;21237;-81
2022/06/22 05:59:45;;;;;;;4.33;2.07;;;23.00;60.70;;;;;;5024073;28;20453;-81
2022/06/22 06:02:22;;;;;;;8.33;2.33;;;22.60;60.40;;;;;;5021986;28;21292;-81
2022/06/22 06:04:58;;;;;;;5.97;2.07;;;22.70;62.10;;;;;;5036531;28;21009;-81
2022/06/22 06:07:33;;;;;;;4.97;2.23;;;23.80;61.70;;;;;;5036251;28;20511;-81
2022/06/22 06:10:04;;;;;;;7.57;2.33;;;24.90;59.80;;;;;;5027301;28;20459;-81
2022/06/22 06:12:36;;;;;;;5.07;2.10;;;25.50;58.80;;;;;;5020568;28;20461;-81
2022/06/22 06:15:06;;;;;;;7.27;2.20;;;25.80;58.20;;;;;;5019535;28;20446;-81
2022/06/22 06:17:38;;;;;;;6.20;2.10;;;25.80;57.30;;;;;;5043264;28;20533;-80
2022/06/22 06:20:28;;;;;;;4.90;2.10;;;25.60;56.90;;;;;;5050065;28;20451;-80
2022/06/22 06:23:04;;;;;;;5.27;2.17;;;25.40;56.40;;;;;;5041388;28;20451;-81
2022/06/22 06:28:34;;;;;;;5.53;2.03;;;24.70;56.30;;;;;;5062713;28;20485;-81
2022/06/22 06:31:08;;;;;;;4.63;2.30;;;24.40;56.60;;;;;;5043449;28;20558;-81
2022/06/22 06:33:39;;;;;;;4.47;2.10;;;24.10;56.50;;;;;;5019179;28;20467;-81
2022/06/22 06:36:16;;;;;;;4.83;2.13;;;23.80;56.50;;;;;;5025092;28;20459;-81
2022/06/22 06:38:48;;;;;;;5.47;2.33;;;23.50;56.80;;;;;;5042107;28;20467;-81
2022/06/22 06:41:20;;;;;;;5.03;2.23;;;23.30;57.10;;;;;;5037493;28;20469;-81
2022/06/22 06:43:51;;;;;;;4.10;2.20;;;23.20;57.30;;;;;;5015874;28;20458;-81
2022/06/22 06:46:24;;;;;;;4.30;2.00;;;23.10;57.50;;;;;;5023096;28;20527;-81
2022/06/22 06:48:58;;;;;;;6.20;2.10;;;23.00;57.60;;;;;;5021719;28;20482;-81
2022/06/22 06:51:31;;;;;;;5.30;2.30;;;22.90;57.60;;;;;;5018272;28;20549;-81
2022/06/22 06:54:06;;;;;;;5.60;2.13;;;22.80;57.70;;;;;;5038537;28;20475;-81
2022/06/22 06:56:39;;;;;;;6.60;2.30;;;22.80;57.80;;;;;;5024497;28;20478;-81
2022/06/22 06:59:13;;;;;;;5.80;2.47;;;22.70;57.90;;;;;;5025349;28;20499;-81
2022/06/22 07:01:44;;;;;;;7.60;2.43;;;22.70;58.00;;;;;;5019461;28;20466;-81
2022/06/22 07:04:17;;;;;;;5.27;2.27;;;22.70;58.00;;;;;;5042077;28;20464;-81
2022/06/22 07:06:47;;;;;;;5.17;2.03;;;22.70;58.00;;;;;;5038943;28;20490;-81
2022/06/22 07:09:20;;;;;;;4.77;2.77;;;22.70;58.00;;;;;;5019200;28;20472;-81
2022/06/22 07:11:51;;;;;;;4.47;1.80;;;22.70;58.00;;;;;;5035905;28;20462;-81
2022/06/22 07:14:24;;;;;;;5.40;2.87;;;22.60;58.10;;;;;;5015109;28;20535;-81
2022/06/22 07:16:58;;;;;;;7.73;2.53;;;22.60;58.10;;;;;;5020019;28;20486;-81
2022/06/22 07:19:29;;;;;;;8.07;2.90;;;22.50;58.40;;;;;;5027979;28;20448;-81
2022/06/22 07:22:03;;;;;;;7.93;2.33;;;22.50;58.40;;;;;;5019479;28;20463;-81
2022/06/22 07:24:35;;;;;;;6.10;2.20;;;22.50;58.40;;;;;;5021546;28;20455;-81
2022/06/22 07:27:09;;;;;;;6.00;2.57;;;22.50;58.50;;;;;;5022017;28;20493;-81
2022/06/22 07:29:44;;;;;;;4.67;2.03;;;22.60;58.60;;;;;;5023894;28;20987;-81
2022/06/22 07:32:20;;;;;;;5.90;2.47;;;22.60;58.60;;;;;;5017015;28;21061;-81
2022/06/22 07:34:56;;;;;;;5.90;2.30;;;22.60;58.60;;;;;;5036987;28;21497;-81
2022/06/22 07:37:31;;;;;;;7.80;2.20;;;22.70;58.60;;;;;;5017778;28;20492;-81
2022/06/22 07:40:06;;;;;;;6.80;2.30;;;22.70;58.50;;;;;;5018591;28;20458;-81
2022/06/22 07:42:34;;;;;;;4.97;2.30;;;22.80;58.60;;;;;;5039926;28;20546;-81
2022/06/22 07:45:04;;;;;;;5.83;2.73;;;22.80;58.60;;;;;;5039432;28;20463;-81
2022/06/22 07:47:37;;;;;;;5.93;2.30;;;22.90;58.60;;;;;;5065148;28;20482;-81
2022/06/22 07:50:12;;;;;;;6.77;2.47;;;23.00;58.40;;;;;;5048741;28;20458;-80
2022/06/22 07:52:45;;;;;;;4.80;2.50;;;23.00;58.30;;;;;;5053861;28;20537;-81
2022/06/22 07:55:31;;;;;;;10.00;3.10;;;23.00;58.30;;;;;;5051671;28;20463;-81
2022/06/22 07:58:23;;;;;;;8.57;3.40;;;23.10;58.20;;;;;;5044405;28;20479;-81
2022/06/22 08:00:56;;;;;;;6.00;2.40;;;23.10;58.30;;;;;;5031925;28;20477;-81
2022/06/22 08:03:30;;;;;;;13.00;2.50;;;23.10;58.30;;;;;;5023263;28;20476;-81
2022/06/22 08:06:04;;;;;;;5.13;2.70;;;23.10;58.40;;;;;;5038311;28;20551;-81
2022/06/22 08:08:38;;;;;;;7.47;2.30;;;23.10;58.40;;;;;;5043503;28;20483;-80
2022/06/22 08:11:11;;;;;;;4.97;2.40;;;23.20;58.40;;;;;;5021636;28;20460;-81
2022/06/22 08:13:45;;;;;;;9.93;2.73;;;23.30;58.10;;;;;;5020072;28;20474;-81
2022/06/22 08:16:20;;;;;;;5.77;2.30;;;23.30;58.00;;;;;;5012326;28;20469;-81
2022/06/22 08:18:49;;;;;;;6.40;2.83;;;23.40;57.90;;;;;;5018575;28;20491;-81
2022/06/22 08:21:23;;;;;;;5.10;2.90;;;23.40;57.90;;;;;;5021247;28;20445;-81
2022/06/22 08:23:53;;;;;;;5.30;2.50;;;23.40;57.80;;;;;;5041110;28;20466;-81
2022/06/22 08:26:25;;;;;;;5.90;2.47;;;23.40;57.90;;;;;;5023587;28;20459;-81
2022/06/22 08:28:55;;;;;;;5.23;2.63;;;23.50;57.90;;;;;;5040377;28;21264;-81
2022/06/22 08:31:23;;;;;;;6.00;2.60;;;23.40;58.00;;;;;;5042776;28;20477;-81
2022/06/22 08:33:58;;;;;;;5.93;2.90;;;23.50;57.80;;;;;;5027593;28;20501;-81
2022/06/22 08:36:31;;;;;;;7.00;2.40;;;23.50;57.80;;;;;;5035074;28;20457;-81
2022/06/22 08:39:05;;;;;;;7.60;3.17;;;23.50;57.60;;;;;;5027077;28;20453;-81
2022/06/22 08:41:47;;;;;;;10.10;2.50;;;23.60;57.50;;;;;;5027019;28;21144;-81
2022/06/22 08:44:26;;;;;;;5.57;2.70;;;23.60;57.70;;;;;;5021132;28;20890;-81
2022/06/22 08:47:20;;;;;;;5.40;2.33;;;23.70;57.70;;;;;;5021591;28;20487;-81
2022/06/22 08:50:09;;;;;;;4.60;2.10;;;23.70;57.60;;;;;;5023569;28;20493;-81
2022/06/22 08:52:46;;;;;;;5.70;2.30;;;23.80;57.70;;;;;;5040952;28;20462;-81
2022/06/22 08:55:53;;;;;;;5.77;2.43;;;23.90;57.60;;;;;;5023082;28;20478;-81
2022/06/22 08:58:39;;;;;;;5.53;2.50;;;24.00;57.40;;;;;;5024117;28;20487;-81
2022/06/22 09:01:16;;;;;;;6.43;2.50;;;24.20;57.20;;;;;;5019419;28;20480;-81
2022/06/22 09:04:16;;;;;;;5.50;2.17;;;24.20;56.90;;;;;;5025181;28;20476;-81
2022/06/22 09:07:02;;;;;;;7.43;2.30;;;24.30;56.80;;;;;;5022932;28;20571;-81
2022/06/22 09:10:04;;;;;;;9.97;3.27;;;24.40;56.70;;;;;;5020651;28;20522;-80
2022/06/22 09:12:47;;;;;;;6.70;2.30;;;24.40;56.50;;;;;;5021379;28;21247;-81
2022/06/22 09:15:36;;;;;;;9.27;2.47;;;24.50;55.90;;;;;;5040538;28;21183;-81
2022/06/22 09:18:22;;;;;;;4.67;2.10;;;24.50;55.20;;;;;;5045501;28;20482;-81
2022/06/22 09:20:58;;;;;;;4.67;1.90;;;24.60;55.10;;;;;;5022137;28;20462;-81
2022/06/22 09:23:34;;;;;;;6.20;2.70;;;24.70;54.80;;;;;;5025617;28;20453;-81
2022/06/22 09:26:15;;;;;;;7.00;2.00;;;24.70;54.50;;;;;;5021689;28;20463;-81
2022/06/22 09:28:57;;;;;;;7.73;2.20;;;24.80;54.00;;;;;;5038045;28;21063;-81
2022/06/22 09:32:03;;;;;;;5.50;2.37;;;24.80;53.30;;;;;;5032842;28;20465;-81
2022/06/22 09:35:03;;;;;;;6.00;2.70;;;24.90;53.30;;;;;;5024193;28;20455;-81
2022/06/22 09:37:59;;;;;;;9.17;2.00;;;24.90;53.10;;;;;;5022739;28;20491;-81
2022/06/22 09:40:35;;;;;;;5.10;2.30;;;24.90;53.00;;;;;;5023637;28;20486;-81
2022/06/22 09:43:41;;;;;;;4.50;2.10;;;25.00;52.90;;;;;;5016564;28;20525;-81
2022/06/22 09:46:37;;;;;;;4.60;2.20;;;25.10;52.60;;;;;;5025579;28;20482;-81
2022/06/22 09:49:22;;;;;;;7.53;2.23;;;25.10;52.40;;;;;;5015535;28;20514;-81
2022/06/22 09:52:29;;;;;;;5.23;2.13;;;25.20;52.40;;;;;;5021433;28;20978;-81
2022/06/22 09:58:44;;;;;;;6.90;2.53;;;25.30;51.80;;;;;;5019386;28;20518;-81
2022/06/22 10:01:22;;;;;;;5.10;2.20;;;25.40;51.60;;;;;;5038108;28;20470;-81
2022/06/22 10:04:30;;;;;;;8.70;2.80;;;25.50;51.50;;;;;;5024407;28;20472;-81
2022/06/22 10:07:14;;;;;;;7.10;2.80;;;25.50;51.70;;;;;;5024877;28;20472;-81
2022/06/22 10:10:14;;;;;;;5.80;3.00;;;25.60;51.60;;;;;;5041614;28;20932;-81
2022/06/22 10:13:22;;;;;;;7.00;2.90;;;25.60;51.80;;;;;;5018490;28;20886;-81
2022/06/22 10:16:16;;;;;;;5.97;2.60;;;25.60;51.90;;;;;;5037538;28;20495;-81
2022/06/22 10:18:59;;;;;;;6.20;2.80;;;25.60;51.90;;;;;;5023955;28;20485;-81
2022/06/22 10:21:43;;;;;;;4.80;2.63;;;25.70;52.10;;;;;;5022819;28;20453;-81
2022/06/22 10:24:31;;;;;;;5.77;3.00;;;25.70;52.10;;;;;;5022863;28;20457;-81
2022/06/22 10:27:25;;;;;;;6.93;3.07;;;25.80;52.10;;;;;;5024349;28;20472;-81
2022/06/22 10:30:07;;;;;;;8.43;2.90;;;25.80;52.00;;;;;;5019753;28;20478;-81
2022/06/22 10:33:04;;;;;;;7.10;2.90;;;25.80;51.80;;;;;;5040695;28;20473;-81
2022/06/22 10:35:58;;;;;;;5.80;2.73;;;25.90;52.00;;;;;;5038940;28;20456;-81
2022/06/22 10:38:47;;;;;;;7.80;3.30;;;25.90;52.00;;;;;;5045245;28;20566;-81
2022/06/22 10:48:07;;;;;;;6.40;3.60;;;26.00;52.30;;;;;;5004040;28;21064;-81
2022/06/22 10:50:44;;;;;;;9.20;2.60;;;26.10;52.40;;;;;;5040924;28;20470;-80
2022/06/22 10:53:39;;;;;;;6.93;4.00;;;26.10;52.60;;;;;;5039002;28;20478;-80
2022/06/22 10:56:19;;;;;;;6.20;3.53;;;26.10;52.90;;;;;;5042312;28;20865;-80
2022/06/22 10:59:01;;;;;;;7.93;3.10;;;26.20;52.90;;;;;;5044866;28;20461;-80
2022/06/22 11:02:02;;;;;;;5.37;3.30;;;26.20;53.00;;;;;;5030662;28;20473;-80
2022/06/22 11:05:08;;;;;;;5.83;3.13;;;26.20;53.00;;;;;;5025195;28;20993;-80
2022/06/22 11:07:55;;;;;;;8.03;3.83;;;26.30;53.00;;;;;;5026603;28;20495;-80
2022/06/22 11:11:09;;;;;;;5.50;2.80;;;26.30;53.20;;;;;;5039090;28;20464;-80
2022/06/22 11:14:00;;;;;;;5.37;2.37;;;26.30;53.00;;;;;;4969350;28;20555;-79
2022/06/22 11:16:55;;;;;;;4.87;2.50;;;26.30;53.00;;;;;;5023641;28;20498;-80
2022/06/22 11:19:48;;;;;;;6.00;3.27;;;26.30;53.00;;;;;;5026796;28;20866;-80
2022/06/22 11:22:29;;;;;;;6.30;2.80;;;26.30;53.00;;;;;;5016079;28;20467;-80
2022/06/22 11:31:25;;;;;;;7.60;2.60;;;26.30;53.10;;;;;;4974617;28;20480;-80
2022/06/22 11:34:18;;;;;;;7.53;2.83;;;26.30;53.00;;;;;;5039052;28;20896;-80
2022/06/22 11:36:54;;;;;;;6.13;2.80;;;26.40;52.90;;;;;;5039088;28;20486;-80
2022/06/22 11:40:02;;;;;;;6.37;2.63;;;26.30;52.90;;;;;;5021290;28;20461;-81
2022/06/22 11:42:41;;;;;;;6.83;3.07;;;26.30;52.90;;;;;;5022319;28;20463;-80
2022/06/22 11:48:34;;;;;;;8.90;3.10;;;26.40;52.60;;;;;;5024830;28;20622;-80
2022/06/22 11:51:26;;;;;;;6.63;2.83;;;26.30;52.80;;;;;;5025440;28;20581;-81
2022/06/22 11:54:11;;;;;;;4.83;2.73;;;26.40;52.80;;;;;;5022001;28;20485;-80
2022/06/22 11:56:59;;;;;;;6.40;2.47;;;26.40;52.90;;;;;;5027221;28;20484;-80
2022/06/22 11:59:43;;;;;;;5.70;3.07;;;26.40;52.90;;;;;;5028815;28;20447;-80
2022/06/22 12:02:41;;;;;;;5.63;2.93;;;26.40;52.80;;;;;;5025908;28;20482;-80
2022/06/22 12:05:32;;;;;;;5.67;2.30;;;26.40;52.70;;;;;;5020644;28;20463;-80
2022/06/22 12:08:13;;;;;;;8.83;2.97;;;26.40;52.90;;;;;;5025198;28;20492;-80
2022/06/22 12:10:49;;;;;;;5.00;2.83;;;26.40;52.80;;;;;;5016312;28;20507;-80
2022/06/22 12:15:04;;;;;;;5.20;2.70;;;26.50;52.80;;;;;;5025864;28;20456;-80
2022/06/22 12:16:36;;;;;;;4.80;2.63;;;26.50;52.60;;;;;;5019150;28;20552;-80
2022/06/22 12:22:50;;;;;;;5.70;2.90;;;26.40;52.70;;;;;;3359716;26;21159;-75
2022/06/22 12:25:44;;;;;;;5.00;2.63;;;26.50;52.90;;;;;;5046006;28;20484;-72
2022/06/22 12:28:32;;;;;;;6.87;2.80;;;26.50;53.00;;;;;;5046662;28;20459;-72
2022/06/22 12:31:11;;;;;;;7.30;3.03;;;26.50;52.90;;;;;;5048975;23;21667;-79
2022/06/22 12:33:51;;;;;;;7.40;2.80;;;26.50;52.90;;;;;;4978616;28;20446;-79
2022/06/22 12:36:24;;;;;;;5.77;2.93;;;26.60;53.10;;;;;;4979132;28;20476;-79
2022/06/22 12:38:59;;;;;;;7.47;2.90;;;26.60;53.10;;;;;;5013979;28;20449;-79
2022/06/22 12:41:50;;;;;;;6.43;2.70;;;26.60;53.10;;;;;;5004644;28;20471;-79
2022/06/22 12:45:06;;;;;;;6.43;2.60;;;26.60;53.10;;;;;;4991374;28;20761;-79
2022/06/22 12:48:10;;;;;;;11.50;5.40;;;26.70;53.00;;;;;;5021795;28;20470;-79
2022/06/22 12:51:10;;;;;;;6.73;3.80;;;26.70;53.10;;;;;;5025393;28;20563;-79
2022/06/22 12:53:43;;;;;;;5.40;3.00;;;26.70;53.30;;;;;;4983907;28;20500;-78
2022/06/22 12:56:15;;;;;;;7.70;3.53;;;26.80;53.50;;;;;;5027465;28;20454;-79
2022/06/22 12:58:50;;;;;;;8.80;3.13;;;26.80;53.50;;;;;;5025732;28;21045;-79
2022/06/22 13:01:20;;;;;;;6.53;3.23;;;26.80;53.50;;;;;;5006934;28;20465;-79
2022/06/22 13:03:54;;;;;;;6.23;3.23;;;26.90;53.60;;;;;;5008758;28;20468;-79
2022/06/22 13:06:24;;;;;;;7.77;3.37;;;26.90;53.70;;;;;;5027457;28;20473;-79
2022/06/22 13:08:53;;;;;;;5.50;3.00;;;26.90;53.70;;;;;;5026190;28;20467;-79
2022/06/22 13:11:26;;;;;;;5.83;2.67;;;26.90;53.70;;;;;;5018084;28;20483;-79
2022/06/22 13:14:14;;;;;;;6.00;3.23;;;27.00;53.70;;;;;;5024812;28;20962;-79
2022/06/22 13:16:50;;;;;;;6.23;3.20;;;27.10;53.40;;;;;;5013866;28;21176;-79
2022/06/22 13:19:25;;;;;;;5.10;3.20;;;27.10;53.30;;;;;;5023401;28;20560;-79
2022/06/22 13:22:00;;;;;;;5.63;3.37;;;27.10;53.10;;;;;;5021463;28;21218;-79
2022/06/22 13:24:36;;;;;;;5.40;3.07;;;27.10;52.90;;;;;;5022077;28;20449;-79
2022/06/22 13:27:21;;;;;;;6.77;3.20;;;27.10;52.70;;;;;;5003735;28;20996;-79
2022/06/22 13:29:51;;;;;;;6.23;3.30;;;27.10;52.90;;;;;;5024694;28;20456;-79
2022/06/22 13:32:23;;;;;;;5.77;3.20;;;27.10;53.00;;;;;;5017365;28;20496;-79
2022/06/22 13:34:55;;;;;;;6.20;3.20;;;27.20;52.90;;;;;;5018501;28;20998;-79
2022/06/22 13:37:30;;;;;;;9.03;3.47;;;27.20;52.70;;;;;;5021505;28;20445;-79
2022/06/22 13:40:10;;;;;;;7.63;3.47;;;27.10;52.70;;;;;;5024630;28;20963;-79
2022/06/22 13:43:04;;;;;;;8.20;3.40;;;27.10;52.70;;;;;;5022220;28;20501;-80
2022/06/22 13:45:48;;;;;;;7.40;3.67;;;27.20;52.90;;;;;;5020678;28;20489;-80
2022/06/22 13:48:20;;;;;;;7.33;4.53;;;27.20;53.30;;;;;;5014352;28;20482;-79
2022/06/22 13:51:21;;;;;;;9.27;3.90;;;27.20;53.50;;;;;;5017030;28;21086;-80
2022/06/22 13:54:18;;;;;;;6.77;4.20;;;27.30;53.60;;;;;;4981920;28;20474;-79
2022/06/22 13:56:58;;;;;;;7.23;4.27;;;27.40;53.50;;;;;;5011159;28;20467;-79
2022/06/22 13:59:34;;;;;;;9.87;4.17;;;27.40;53.30;;;;;;5020556;28;20456;-79
2022/06/22 14:02:13;;;;;;;6.77;4.10;;;27.40;53.30;;;;;;5002730;28;20473;-79
2022/06/22 14:04:48;;;;;;;5.77;4.03;;;27.40;53.30;;;;;;5022140;28;20984;-79
2022/06/22 14:07:23;;;;;;;7.00;4.27;;;27.40;53.30;;;;;;5019401;28;20454;-79
2022/06/22 14:10:00;;;;;;;7.50;4.03;;;27.40;53.50;;;;;;5021421;28;20465;-79
2022/06/22 14:12:38;;;;;;;8.43;4.30;;;27.40;53.40;;;;;;5016916;28;20501;-79
2022/06/22 14:15:19;;;;;;;10.20;4.40;;;27.40;53.50;;;;;;5017389;28;20488;-79